createdAt,value
2019-06-27T00:00:05.048Z,7936.00
2019-06-27T00:01:05.032Z,8616.00
2019-06-27T00:02:58.586Z,5688.00
2019-06-27T00:03:58.366Z,10504.00
2019-06-27T00:05:51.721Z,11084.00
2019-06-27T00:06:51.711Z,11460.00
2019-06-27T00:08:45.282Z,8768.00
2019-06-27T00:09:45.063Z,8896.00
2019-06-27T00:11:38.414Z,6620.00
2019-06-27T00:12:38.400Z,7008.00
2019-06-27T00:14:31.980Z,4652.00
2019-06-27T00:15:31.750Z,3696.00
2019-06-27T00:17:25.105Z,2800.00
2019-06-27T00:18:25.099Z,2720.00
2019-06-27T00:20:18.663Z,2552.00
2019-06-27T00:21:18.446Z,2256.00
2019-06-27T00:23:11.792Z,2468.00
2019-06-27T00:24:11.787Z,2172.00
2019-06-27T00:26:04.691Z,1500.00
2019-06-27T00:27:04.465Z,1344.00
2019-06-27T00:28:57.830Z,1152.00
2019-06-27T00:29:57.835Z,1040.00
2019-06-27T00:31:51.369Z,876.00
2019-06-27T00:32:51.156Z,836.00
2019-06-27T00:34:44.511Z,792.00
2019-06-27T00:35:44.501Z,808.00
2019-06-27T00:37:38.112Z,848.00
2019-06-27T00:38:37.854Z,840.00
2019-06-27T00:40:31.208Z,796.00
2019-06-27T00:41:31.198Z,764.00
2019-06-27T00:43:24.768Z,680.00
2019-06-27T00:44:24.541Z,624.00
2019-06-27T00:46:17.899Z,552.00
2019-06-27T00:47:17.886Z,532.00
2019-06-27T00:49:11.425Z,528.00
2019-06-27T00:50:11.226Z,516.00
2019-06-27T00:52:04.578Z,480.00
2019-06-27T00:53:04.573Z,464.00
2019-06-27T00:54:58.119Z,468.00
2019-06-27T00:55:57.913Z,484.00
2019-06-27T00:57:51.270Z,532.00
2019-06-27T00:58:51.261Z,576.00
2019-06-27T01:00:44.804Z,616.00
2019-06-27T01:01:44.598Z,636.00
2019-06-27T01:03:37.295Z,692.00
2019-06-27T01:04:37.278Z,716.00
2019-06-27T01:06:31.427Z,744.00
2019-06-27T01:07:30.622Z,760.00
2019-06-27T01:09:23.978Z,772.00
2019-06-27T01:10:23.975Z,776.00
2019-06-27T01:12:17.538Z,792.00
2019-06-27T01:13:17.304Z,808.00
2019-06-27T01:15:10.660Z,828.00
2019-06-27T01:16:10.660Z,836.00
2019-06-27T01:18:04.227Z,888.00
2019-06-27T01:19:03.997Z,892.00
2019-06-27T01:20:57.341Z,908.00
2019-06-27T01:21:57.345Z,944.00
2019-06-27T01:23:50.905Z,1024.00
2019-06-27T01:24:50.683Z,1068.00
2019-06-27T01:26:43.021Z,1104.00
2019-06-27T01:27:43.007Z,1232.00
2019-06-27T01:29:35.915Z,1292.00
2019-06-27T01:30:35.718Z,1248.00
2019-06-27T01:32:29.069Z,1224.00
2019-06-27T01:33:29.058Z,1164.00
2019-06-27T01:35:22.635Z,1168.00
2019-06-27T01:36:22.401Z,1156.00
2019-06-27T01:38:15.758Z,1104.00
2019-06-27T01:39:15.743Z,1116.00
2019-06-27T01:41:09.307Z,1220.00
2019-06-27T01:42:09.079Z,1280.00
2019-06-27T01:44:02.445Z,1456.00
2019-06-27T01:45:02.429Z,1520.00
2019-06-27T01:46:56.007Z,1416.00
2019-06-27T01:47:55.774Z,1340.00
2019-06-27T01:49:49.123Z,1304.00
2019-06-27T01:50:49.115Z,1364.00
2019-06-27T01:52:42.690Z,1512.00
2019-06-27T01:53:42.455Z,1552.00
2019-06-27T01:55:35.819Z,1472.00
2019-06-27T01:56:35.808Z,1392.00
2019-06-27T01:58:29.969Z,1432.00
2019-06-27T01:59:29.153Z,1528.00
2019-06-27T02:01:22.499Z,1640.00
2019-06-27T02:02:22.552Z,1824.00
2019-06-27T02:04:16.652Z,2028.00
2019-06-27T02:05:15.836Z,1996.00
2019-06-27T02:07:08.181Z,1944.00
2019-06-27T02:08:08.159Z,2020.00
2019-06-27T02:10:01.830Z,2228.00
2019-06-27T02:11:01.504Z,2444.00
2019-06-27T02:12:54.854Z,2756.00
2019-06-27T02:13:54.838Z,2712.00
2019-06-27T02:15:49.015Z,2452.00
2019-06-27T02:16:48.182Z,2360.00
2019-06-27T02:18:41.541Z,2196.00
2019-06-27T02:19:41.531Z,1996.00
2019-06-27T02:21:35.096Z,1524.00
2019-06-27T02:22:34.876Z,1368.00
2019-06-27T02:24:28.228Z,1328.00
2019-06-27T02:25:28.217Z,1380.00
2019-06-27T02:27:21.808Z,1584.00
2019-06-27T02:28:21.554Z,1696.00
2019-06-27T02:30:14.912Z,1896.00
2019-06-27T02:31:14.906Z,2064.00
2019-06-27T02:33:08.470Z,2560.00
2019-06-27T02:34:08.238Z,2876.00
2019-06-27T02:36:01.601Z,3112.00
2019-06-27T02:37:01.591Z,3096.00
2019-06-27T02:38:55.128Z,3136.00
2019-06-27T02:39:54.940Z,3200.00
2019-06-27T02:41:48.275Z,3308.00
2019-06-27T02:42:48.265Z,3404.00
2019-06-27T02:44:41.846Z,3544.00
2019-06-27T02:45:41.602Z,3508.00
2019-06-27T02:47:34.958Z,3288.00
2019-06-27T02:48:34.946Z,2932.00
2019-06-27T02:50:28.523Z,2104.00
2019-06-27T02:51:28.287Z,1788.00
2019-06-27T02:53:21.637Z,1444.00
2019-06-27T02:54:21.655Z,1400.00
2019-06-27T02:56:15.185Z,1460.00
2019-06-27T02:57:14.975Z,1508.00
2019-06-27T02:59:08.331Z,1616.00
2019-06-27T03:00:08.323Z,1612.00
2019-06-27T03:02:01.888Z,1700.00
2019-06-27T03:03:01.663Z,1832.00
2019-06-27T03:04:55.010Z,2132.00
2019-06-27T03:05:55.004Z,2232.00
2019-06-27T03:07:49.158Z,2088.00
2019-06-27T03:08:48.340Z,1944.00
2019-06-27T03:10:41.696Z,1768.00
2019-06-27T03:11:41.687Z,1756.00
2019-06-27T03:13:35.827Z,1892.00
2019-06-27T03:14:35.037Z,2016.00
2019-06-27T03:16:28.379Z,2464.00
2019-06-27T03:17:28.382Z,2816.00
2019-06-27T03:19:23.034Z,3520.00
2019-06-27T03:20:22.668Z,3712.00
2019-06-27T03:22:16.021Z,3352.00
2019-06-27T03:23:16.004Z,2960.00
2019-06-27T03:25:09.549Z,2300.00
2019-06-27T03:26:09.351Z,2028.00
2019-06-27T03:28:02.721Z,1824.00
2019-06-27T03:29:02.685Z,1696.00
2019-06-27T03:30:55.251Z,1424.00
2019-06-27T03:31:55.025Z,1328.00
2019-06-27T03:33:47.377Z,1184.00
2019-06-27T03:34:47.335Z,1124.00
2019-06-27T03:36:40.911Z,1156.00
2019-06-27T03:37:40.678Z,1284.00
2019-06-27T03:39:34.031Z,1708.00
2019-06-27T03:40:34.044Z,1980.00
2019-06-27T03:42:27.659Z,2352.00
2019-06-27T03:43:27.370Z,2572.00
2019-06-27T03:45:21.337Z,2872.00
2019-06-27T03:46:20.710Z,2944.00
2019-06-27T03:48:14.285Z,2784.00
2019-06-27T03:49:14.056Z,2484.00
2019-06-27T03:51:07.405Z,2116.00
2019-06-27T03:52:07.391Z,2056.00
2019-06-27T03:53:59.973Z,1852.00
2019-06-27T03:54:59.729Z,1748.00
2019-06-27T03:56:53.083Z,1580.00
2019-06-27T03:57:53.072Z,1496.00
2019-06-27T03:59:46.630Z,1472.00
2019-06-27T04:00:46.420Z,1452.00
2019-06-27T04:02:39.139Z,1360.00
2019-06-27T04:03:42.869Z,1308.00
2019-06-27T04:05:32.788Z,1216.00
2019-06-27T04:06:32.465Z,1184.00
2019-06-27T04:08:26.412Z,1152.00
2019-06-27T04:09:25.865Z,1144.00
2019-06-27T04:11:19.369Z,1160.00
2019-06-27T04:12:19.143Z,1184.00
2019-06-27T04:14:12.492Z,1168.00
2019-06-27T04:15:12.486Z,1168.00
2019-06-27T04:17:06.056Z,1192.00
2019-06-27T04:18:05.822Z,1220.00
2019-06-27T04:19:59.186Z,1236.00
2019-06-27T04:20:59.185Z,1276.00
2019-06-27T04:22:51.732Z,1376.00
2019-06-27T04:23:51.505Z,1428.00
2019-06-27T04:25:44.959Z,1536.00
2019-06-27T04:26:44.866Z,1600.00
2019-06-27T04:28:38.998Z,1684.00
2019-06-27T04:29:38.189Z,1688.00
2019-06-27T04:31:31.558Z,1836.00
2019-06-27T04:32:31.526Z,1800.00
2019-06-27T04:34:25.093Z,1760.00
2019-06-27T04:35:24.876Z,1764.00
2019-06-27T04:37:17.214Z,1820.00
2019-06-27T04:38:17.198Z,1888.00
2019-06-27T04:40:09.868Z,2184.00
2019-06-27T04:41:09.526Z,2416.00
2019-06-27T04:43:05.318Z,2680.00
2019-06-27T04:44:01.862Z,2748.00
2019-06-27T04:45:54.409Z,2704.00
2019-06-27T04:46:54.182Z,2632.00
2019-06-27T04:48:46.539Z,2468.00
2019-06-27T04:49:46.522Z,2384.00
2019-06-27T04:50:46.507Z,2356.00
2019-06-27T04:51:46.491Z,2320.00
2019-06-27T04:52:46.483Z,2232.00
2019-06-27T04:53:46.485Z,2152.00
2019-06-27T04:54:46.471Z,2112.00
2019-06-27T04:55:46.459Z,2080.00
2019-06-27T04:56:46.458Z,2020.00
2019-06-27T04:57:46.441Z,1952.00
2019-06-27T04:58:46.436Z,1912.00
2019-06-27T04:59:53.099Z,1932.00
2019-06-27T05:00:46.425Z,1956.00
2019-06-27T05:01:46.408Z,1964.00
2019-06-27T05:02:46.401Z,1884.00
2019-06-27T05:03:46.402Z,1748.00
2019-06-27T05:04:46.391Z,1668.00
2019-06-27T05:05:46.368Z,1624.00
2019-06-27T05:06:46.367Z,1624.00
2019-06-27T05:07:46.364Z,1632.00
2019-06-27T05:08:46.348Z,1624.00
2019-06-27T05:09:46.349Z,1620.00
2019-06-27T05:10:46.346Z,1636.00
2019-06-27T05:11:46.322Z,1672.00
2019-06-27T05:12:46.314Z,1732.00
2019-06-27T05:13:46.302Z,1764.00
2019-06-27T05:45:15.305Z,1868.00
2019-06-27T05:46:14.478Z,1872.00
2019-06-27T05:47:14.475Z,1876.00
2019-06-27T05:48:14.462Z,1952.00
2019-06-27T05:49:14.463Z,2028.00
2019-06-27T05:50:14.441Z,2008.00
2019-06-27T05:51:14.434Z,2056.00
2019-06-27T05:52:14.422Z,2116.00
2019-06-27T05:53:14.408Z,2156.00
2019-06-27T05:54:14.393Z,2280.00
2019-06-27T05:55:14.391Z,2360.00
2019-06-27T05:56:14.955Z,2424.00
2019-06-27T05:57:14.374Z,2448.00
2019-06-27T05:58:14.364Z,2460.00
2019-06-27T05:59:14.354Z,2540.00
2019-06-27T06:00:27.651Z,2648.00
2019-06-27T06:01:14.336Z,2788.00
2019-06-27T06:02:14.325Z,2844.00
2019-06-27T06:03:14.304Z,2804.00
2019-06-27T06:04:14.301Z,2628.00
2019-06-27T06:05:14.299Z,2472.00
2019-06-27T06:06:14.286Z,2392.00
2019-06-27T06:07:14.278Z,2388.00
2019-06-27T06:08:14.261Z,2436.00
2019-06-27T06:09:14.249Z,2388.00
2019-06-27T06:10:14.246Z,2276.00
2019-06-27T06:11:14.232Z,2220.00
2019-06-27T06:12:14.223Z,2252.00
2019-06-27T06:13:14.221Z,2368.00
2019-06-27T06:14:14.205Z,2496.00
2019-06-27T06:15:14.206Z,2600.00
2019-06-27T06:16:14.243Z,2732.00
2019-06-27T06:17:14.180Z,2804.00
2019-06-27T06:18:14.183Z,2836.00
2019-06-27T06:19:14.167Z,2828.00
2019-06-27T06:20:14.153Z,2744.00
2019-06-27T06:21:14.155Z,2556.00
2019-06-27T06:22:14.144Z,2232.00
2019-06-27T06:23:14.130Z,1836.00
2019-06-27T06:24:14.126Z,1516.00
2019-06-27T06:25:14.110Z,1332.00
2019-06-27T06:26:14.097Z,1252.00
2019-06-27T06:27:14.093Z,1268.00
2019-06-27T06:28:14.080Z,1344.00
2019-06-27T06:29:14.158Z,1444.00
2019-06-27T06:30:14.067Z,1532.00
2019-06-27T06:31:14.100Z,1620.00
2019-06-27T06:32:14.046Z,1688.00
2019-06-27T06:33:14.041Z,1724.00
2019-06-27T06:34:14.060Z,1740.00
2019-06-27T06:35:14.024Z,1740.00
2019-06-27T06:37:14.495Z,1816.00
2019-06-27T06:38:14.001Z,1884.00
2019-06-27T06:39:14.020Z,1968.00
2019-06-27T06:40:13.993Z,2076.00
2019-06-27T06:41:13.986Z,2204.00
2019-06-27T06:42:13.959Z,2348.00
2019-06-27T06:43:13.956Z,2500.00
2019-06-27T06:44:13.949Z,2644.00
2019-06-27T06:45:13.955Z,2784.00
2019-06-27T06:46:13.945Z,2932.00
2019-06-27T06:47:13.917Z,3064.00
2019-06-27T06:48:13.915Z,3120.00
2019-06-27T06:49:13.903Z,3108.00
2019-06-27T06:50:13.989Z,3064.00
2019-06-27T06:51:13.899Z,2980.00
2019-06-27T06:52:13.884Z,2868.00
2019-06-27T06:53:13.904Z,2780.00
2019-06-27T06:54:13.852Z,2756.00
2019-06-27T06:55:13.855Z,2760.00
2019-06-27T06:56:13.840Z,2800.00
2019-06-27T06:57:14.609Z,2836.00
2019-06-27T06:58:13.820Z,2888.00
2019-06-27T06:59:13.819Z,2956.00
2019-06-27T07:00:13.803Z,3052.00
2019-06-27T07:01:13.795Z,3168.00
2019-06-27T07:02:13.790Z,3312.00
2019-06-27T07:03:13.779Z,3500.00
2019-06-27T07:04:13.766Z,3652.00
2019-06-27T07:05:13.766Z,3716.00
2019-06-27T07:06:13.755Z,3696.00
2019-06-27T07:07:13.741Z,3672.00
2019-06-27T07:08:13.756Z,3644.00
2019-06-27T07:09:13.726Z,3612.00
2019-06-27T07:10:13.723Z,3560.00
2019-06-27T07:11:13.711Z,3428.00
2019-06-27T07:12:13.711Z,3384.00
2019-06-27T07:13:13.688Z,3356.00
2019-06-27T07:14:13.693Z,3312.00
2019-06-27T07:15:13.672Z,3284.00
2019-06-27T07:16:13.673Z,3252.00
2019-06-27T07:17:13.665Z,3276.00
2019-06-27T07:18:13.725Z,3360.00
2019-06-27T07:19:13.646Z,3448.00
2019-06-27T07:20:13.640Z,3552.00
2019-06-27T07:21:13.626Z,3640.00
2019-06-27T07:22:13.623Z,3700.00
2019-06-27T07:23:13.608Z,3768.00
2019-06-27T07:24:13.603Z,3812.00
2019-06-27T07:25:14.519Z,3776.00
2019-06-27T07:26:13.581Z,3700.00
2019-06-27T07:27:13.578Z,3624.00
2019-06-27T07:28:13.572Z,3484.00
2019-06-27T07:29:13.578Z,3256.00
2019-06-27T07:30:13.554Z,3084.00
2019-06-27T07:31:17.657Z,3060.00
2019-06-27T07:32:13.530Z,3292.00
2019-06-27T07:33:13.535Z,3284.00
2019-06-27T07:34:13.525Z,3268.00
2019-06-27T07:35:13.515Z,3208.00
2019-06-27T07:36:13.497Z,3044.00
2019-06-27T07:37:13.500Z,2744.00
2019-06-27T07:38:13.486Z,2884.00
2019-06-27T07:39:13.494Z,3036.00
2019-06-27T07:40:13.508Z,3076.00
2019-06-27T07:41:13.478Z,2984.00
2019-06-27T07:42:13.481Z,2908.00
2019-06-27T07:43:13.470Z,2688.00
2019-06-27T07:44:13.460Z,2480.00
2019-06-27T07:45:13.445Z,2432.00
2019-06-27T07:46:24.626Z,2560.00
2019-06-27T07:47:13.473Z,2544.00
2019-06-27T07:48:13.416Z,2500.00
2019-06-27T07:49:13.414Z,2552.00
2019-06-27T07:50:13.407Z,2636.00
2019-06-27T07:51:13.401Z,2788.00
2019-06-27T07:52:13.424Z,2724.00
2019-06-27T07:53:13.376Z,2536.00
2019-06-27T07:54:13.380Z,2416.00
2019-06-27T07:55:13.366Z,2520.00
2019-06-27T07:56:13.355Z,2536.00
2019-06-27T07:57:13.342Z,2476.00
2019-06-27T07:58:13.322Z,2288.00
2019-06-27T07:59:13.311Z,2236.00
2019-06-27T08:00:13.315Z,2200.00
2019-06-27T08:01:13.298Z,2008.00
2019-06-27T08:02:16.223Z,1828.00
2019-06-27T08:03:13.291Z,1960.00
2019-06-27T08:04:13.274Z,2052.00
2019-06-27T08:05:13.270Z,2060.00
2019-06-27T08:06:13.255Z,2100.00
2019-06-27T08:07:13.243Z,2000.00
2019-06-27T08:08:13.239Z,1888.00
2019-06-27T08:09:13.224Z,1732.00
2019-06-27T08:10:13.221Z,1496.00
2019-06-27T08:11:13.220Z,1576.00
2019-06-27T08:12:13.226Z,1696.00
2019-06-27T08:13:13.211Z,1676.00
2019-06-27T08:14:13.202Z,1516.00
2019-06-27T08:15:13.187Z,1344.00
2019-06-27T08:16:13.177Z,1416.00
2019-06-27T08:17:13.163Z,1592.00
2019-06-27T08:18:13.161Z,1620.00
2019-06-27T08:19:13.157Z,1348.00
2019-06-27T08:20:13.125Z,1364.00
2019-06-27T08:21:13.119Z,1508.00
2019-06-27T08:22:13.122Z,1976.00
2019-06-27T08:23:13.108Z,1768.00
2019-06-27T08:24:13.102Z,1636.00
2019-06-27T08:25:13.088Z,1608.00
2019-06-27T08:26:13.081Z,1516.00
2019-06-27T08:27:13.079Z,1540.00
2019-06-27T08:28:13.063Z,1492.00
2019-06-27T08:29:13.059Z,1300.00
2019-06-27T08:30:13.045Z,1296.00
2019-06-27T08:31:13.048Z,1196.00
2019-06-27T08:32:13.039Z,1148.00
2019-06-27T08:33:13.053Z,1012.00
2019-06-27T08:34:13.016Z,1016.00
2019-06-27T08:35:13.032Z,996.00
2019-06-27T08:36:13.003Z,900.00
2019-06-27T08:37:12.995Z,860.00
2019-06-27T08:38:12.990Z,800.00
2019-06-27T08:39:12.967Z,732.00
2019-06-27T08:40:12.977Z,680.00
2019-06-27T08:42:12.992Z,604.00
2019-06-27T08:43:12.933Z,572.00
2019-06-27T08:44:12.935Z,556.00
2019-06-27T08:45:12.935Z,588.00
2019-06-27T08:46:12.921Z,600.00
2019-06-27T08:47:12.916Z,596.00
2019-06-27T08:48:12.902Z,640.00
2019-06-27T08:49:12.885Z,644.00
2019-06-27T08:50:12.875Z,708.00
2019-06-27T08:51:12.871Z,760.00
2019-06-27T08:52:13.608Z,756.00
2019-06-27T08:53:12.852Z,732.00
2019-06-27T08:54:12.842Z,716.00
2019-06-27T08:55:12.837Z,688.00
2019-06-27T08:56:12.822Z,632.00
2019-06-27T08:57:12.823Z,644.00
2019-06-27T08:58:12.816Z,652.00
2019-06-27T08:59:12.807Z,660.00
2019-06-27T09:00:12.792Z,732.00
2019-06-27T09:01:12.793Z,712.00
2019-06-27T09:02:12.771Z,672.00
2019-06-27T09:03:12.767Z,660.00
2019-06-27T09:04:12.749Z,636.00
2019-06-27T09:05:12.777Z,656.00
2019-06-27T09:06:12.739Z,772.00
2019-06-27T09:07:12.736Z,780.00
2019-06-27T09:08:12.735Z,620.00
2019-06-27T09:09:12.741Z,548.00
2019-06-27T09:10:12.705Z,524.00
2019-06-27T09:11:12.707Z,524.00
2019-06-27T09:12:12.700Z,520.00
2019-06-27T09:13:12.685Z,520.00
2019-06-27T09:14:12.668Z,500.00
2019-06-27T09:15:12.666Z,532.00
2019-06-27T09:16:12.650Z,552.00
2019-06-27T09:17:12.648Z,568.00
2019-06-27T09:18:12.635Z,532.00
2019-06-27T09:19:12.625Z,480.00
2019-06-27T09:20:12.618Z,452.00
2019-06-27T09:21:12.605Z,448.00
2019-06-27T09:22:12.596Z,440.00
2019-06-27T09:23:12.593Z,484.00
2019-06-27T09:24:12.592Z,436.00
2019-06-27T09:25:12.573Z,372.00
2019-06-27T09:27:12.559Z,436.00
2019-06-27T09:28:12.552Z,444.00
2019-06-27T09:29:12.540Z,428.00
2019-06-27T09:30:12.537Z,428.00
2019-06-27T09:31:12.524Z,444.00
2019-06-27T09:32:24.704Z,456.00
2019-06-27T09:33:12.506Z,460.00
2019-06-27T09:34:12.522Z,460.00
2019-06-27T09:35:12.488Z,460.00
2019-06-27T09:36:12.481Z,452.00
2019-06-27T09:37:12.465Z,456.00
2019-06-27T09:38:12.459Z,460.00
2019-06-27T09:39:12.449Z,464.00
2019-06-27T09:40:12.434Z,460.00
2019-06-27T09:41:12.434Z,468.00
2019-06-27T09:42:12.470Z,464.00
2019-06-27T09:43:12.421Z,444.00
2019-06-27T09:44:12.401Z,424.00
2019-06-27T09:45:12.402Z,420.00
2019-06-27T09:46:12.387Z,428.00
2019-06-27T09:47:12.380Z,432.00
2019-06-27T09:48:12.370Z,412.00
2019-06-27T09:49:12.358Z,480.00
2019-06-27T09:50:13.189Z,540.00
2019-06-27T09:51:12.335Z,460.00
2019-06-27T09:52:12.332Z,472.00
2019-06-27T09:53:12.329Z,444.00
2019-06-27T09:54:12.319Z,432.00
2019-06-27T09:55:12.305Z,444.00
2019-06-27T09:56:12.302Z,428.00
2019-06-27T09:57:12.292Z,376.00
2019-06-27T09:58:12.285Z,380.00
2019-06-27T09:59:12.274Z,404.00
2019-06-27T10:00:12.263Z,396.00
2019-06-27T10:01:12.248Z,380.00
2019-06-27T10:02:12.252Z,340.00
2019-06-27T10:03:12.242Z,332.00
2019-06-27T10:04:12.700Z,336.00
2019-06-27T10:05:12.226Z,356.00
2019-06-27T10:06:12.696Z,336.00
2019-06-27T10:07:12.196Z,348.00
2019-06-27T10:08:12.196Z,364.00
2019-06-27T10:09:12.176Z,356.00
2019-06-27T10:10:12.173Z,352.00
2019-06-27T10:11:12.169Z,376.00
2019-06-27T10:12:12.156Z,376.00
2019-06-27T10:13:12.147Z,360.00
2019-06-27T10:14:12.140Z,352.00
2019-06-27T10:15:12.125Z,368.00
2019-06-27T10:16:12.125Z,396.00
2019-06-27T10:17:12.110Z,456.00
2019-06-27T10:18:12.098Z,500.00
2019-06-27T10:19:12.094Z,432.00
2019-06-27T10:20:12.086Z,320.00
2019-06-27T10:21:12.073Z,308.00
2019-06-27T10:22:12.070Z,260.00
2019-06-27T10:23:12.054Z,256.00
2019-06-27T10:24:12.047Z,304.00
2019-06-27T10:25:12.045Z,284.00
2019-06-27T10:26:12.031Z,248.00
2019-06-27T10:27:12.030Z,212.00
2019-06-27T10:28:12.014Z,228.00
2019-06-27T10:29:12.023Z,264.00
2019-06-27T10:30:11.997Z,284.00
2019-06-27T10:31:11.987Z,288.00
2019-06-27T10:32:11.986Z,316.00
2019-06-27T10:33:11.968Z,316.00
2019-06-27T10:34:11.958Z,320.00
2019-06-27T10:35:11.956Z,320.00
2019-06-27T10:36:11.947Z,316.00
2019-06-27T10:37:11.940Z,312.00
2019-06-27T10:38:11.925Z,308.00
2019-06-27T10:39:11.916Z,312.00
2019-06-27T10:40:11.925Z,312.00
2019-06-27T10:41:11.900Z,308.00
2019-06-27T10:42:11.888Z,312.00
2019-06-27T10:43:11.887Z,320.00
2019-06-27T10:44:11.876Z,300.00
2019-06-27T10:45:11.860Z,260.00
2019-06-27T10:46:11.857Z,240.00
2019-06-27T10:47:11.857Z,220.00
2019-06-27T10:48:11.830Z,224.00
2019-06-27T10:49:11.834Z,256.00
2019-06-27T10:50:11.822Z,260.00
2019-06-27T10:51:11.814Z,284.00
2019-06-27T10:52:11.802Z,340.00
2019-06-27T10:53:11.785Z,396.00
2019-06-27T10:54:11.775Z,392.00
2019-06-27T10:55:11.767Z,348.00
2019-06-27T10:56:11.777Z,328.00
2019-06-27T10:57:11.750Z,320.00
2019-06-27T10:58:11.747Z,316.00
2019-06-27T10:59:11.737Z,320.00
2019-06-27T11:00:11.727Z,312.00
2019-06-27T11:01:11.721Z,280.00
2019-06-27T11:02:11.704Z,320.00
2019-06-27T11:03:15.940Z,276.00
2019-06-27T11:04:11.699Z,204.00
2019-06-27T11:05:12.236Z,188.00
2019-06-27T11:06:11.681Z,216.00
2019-06-27T11:07:11.667Z,260.00
2019-06-27T11:08:11.659Z,276.00
2019-06-27T11:09:14.317Z,288.00
2019-06-27T11:10:11.674Z,324.00
2019-06-27T11:11:11.631Z,316.00
2019-06-27T11:12:11.633Z,268.00
2019-06-27T11:13:11.610Z,260.00
2019-06-27T11:14:11.599Z,248.00
2019-06-27T11:15:11.598Z,248.00
2019-06-27T11:16:11.587Z,236.00
2019-06-27T11:17:11.583Z,196.00
2019-06-27T11:18:11.568Z,196.00
2019-06-27T11:19:11.562Z,216.00
2019-06-27T11:20:14.984Z,224.00
2019-06-27T11:21:13.907Z,240.00
2019-06-27T11:22:11.528Z,240.00
2019-06-27T11:23:11.525Z,224.00
2019-06-27T11:24:11.531Z,188.00
2019-06-27T11:25:11.511Z,168.00
2019-06-27T11:26:11.504Z,184.00
2019-06-27T11:27:11.489Z,164.00
2019-06-27T11:28:11.484Z,144.00
2019-06-27T11:29:11.464Z,136.00
2019-06-27T11:30:11.461Z,156.00
2019-06-27T11:31:11.452Z,148.00
2019-06-27T11:32:11.444Z,120.00
2019-06-27T11:33:11.430Z,140.00
2019-06-27T11:34:11.422Z,128.00
2019-06-27T11:35:11.418Z,96.00
2019-06-27T11:36:11.416Z,108.00
2019-06-27T11:37:11.394Z,104.00
2019-06-27T11:38:11.389Z,128.00
2019-06-27T11:39:11.381Z,128.00
2019-06-27T11:40:12.579Z,124.00
2019-06-27T11:41:11.355Z,152.00
2019-06-27T11:42:11.349Z,156.00
2019-06-27T11:43:11.337Z,148.00
2019-06-27T11:44:11.329Z,136.00
2019-06-27T11:45:11.338Z,140.00
2019-06-27T11:46:11.786Z,132.00
2019-06-27T11:47:11.303Z,124.00
2019-06-27T11:48:11.286Z,116.00
2019-06-27T11:49:11.287Z,116.00
2019-06-27T11:50:11.283Z,112.00
2019-06-27T11:51:11.302Z,112.00
2019-06-27T11:52:11.259Z,104.00
2019-06-27T11:53:11.251Z,92.00
2019-06-27T11:54:11.244Z,92.00
2019-06-27T11:55:11.228Z,88.00
2019-06-27T11:56:11.223Z,76.00
2019-06-27T11:57:11.212Z,72.00
2019-06-27T11:58:11.278Z,68.00
2019-06-27T11:59:11.198Z,64.00
2019-06-27T12:01:11.185Z,56.00
2019-06-27T12:02:11.889Z,56.00
2019-06-27T12:03:11.154Z,56.00
2019-06-27T12:04:11.158Z,56.00
2019-06-27T12:05:11.144Z,60.00
2019-06-27T12:06:11.135Z,60.00
2019-06-27T12:07:11.117Z,60.00
2019-06-27T12:08:11.178Z,60.00
2019-06-27T12:09:11.096Z,52.00
2019-06-27T12:10:11.097Z,48.00
2019-06-27T12:11:11.079Z,40.00
2019-06-27T12:12:11.077Z,40.00
2019-06-27T12:13:11.062Z,36.00
2019-06-27T12:14:11.061Z,36.00
2019-06-27T12:15:11.047Z,32.00
2019-06-27T12:16:11.048Z,32.00
2019-06-27T12:17:11.025Z,28.00
2019-06-27T12:18:11.015Z,24.00
2019-06-27T12:19:11.030Z,24.00
2019-06-27T12:20:11.005Z,20.00
2019-06-27T12:21:11.001Z,20.00
2019-06-27T12:22:10.979Z,20.00
2019-06-27T12:23:10.974Z,16.00
2019-06-27T12:24:10.962Z,20.00
2019-06-27T12:25:10.954Z,16.00
2019-06-27T12:26:10.997Z,12.00
2019-06-27T12:27:10.939Z,12.00
2019-06-27T12:28:10.934Z,12.00
2019-06-27T12:29:10.927Z,16.00
2019-06-27T12:30:10.917Z,8.00
2019-06-27T12:31:20.544Z,12.00
2019-06-27T12:32:10.914Z,8.00
2019-06-27T12:33:10.886Z,8.00
2019-06-27T12:34:10.876Z,4.00
2019-06-27T12:35:10.867Z,4.00
2019-06-27T12:36:10.863Z,4.00
2019-06-27T12:37:10.862Z,4.00
2019-06-27T12:38:10.837Z,4.00
2019-06-27T12:39:10.832Z,8.00
2019-06-27T12:40:10.829Z,4.00
2019-06-27T12:41:10.813Z,4.00
2019-06-27T12:42:10.807Z,4.00
2019-06-27T12:43:14.318Z,4.00
2019-06-27T12:44:10.790Z,4.00
2019-06-27T12:45:10.773Z,4.00
2019-06-27T12:46:10.765Z,0.00
2019-06-27T12:47:10.765Z,4.00
2019-06-27T12:48:10.748Z,4.00
2019-06-27T12:49:10.743Z,4.00
2019-06-27T12:50:10.735Z,4.00
2019-06-27T12:51:10.717Z,4.00
2019-06-27T12:52:10.730Z,4.00
2019-06-27T12:53:10.709Z,4.00
2019-06-27T12:54:10.695Z,4.00
2019-06-27T12:55:10.691Z,0.00
2019-06-27T12:56:10.678Z,0.00
2019-06-27T12:57:10.661Z,0.00
2019-06-27T12:58:11.423Z,0.00
2019-06-27T12:59:11.426Z,0.00
2019-06-27T13:00:10.639Z,0.00
2019-06-27T13:01:10.639Z,0.00
2019-06-27T13:02:11.640Z,0.00
2019-06-27T13:03:10.613Z,0.00
2019-06-27T13:04:22.657Z,0.00
2019-06-27T13:05:10.597Z,0.00
2019-06-27T13:06:10.590Z,0.00
2019-06-27T13:07:10.575Z,0.00
2019-06-27T13:08:10.571Z,0.00
2019-06-27T13:09:10.560Z,0.00
2019-06-27T13:10:10.552Z,0.00
2019-06-27T13:11:10.542Z,0.00
2019-06-27T13:12:10.537Z,0.00
2019-06-27T13:13:10.528Z,0.00
2019-06-27T13:14:10.509Z,0.00
2019-06-27T13:15:10.506Z,0.00
2019-06-27T13:16:10.505Z,0.00
2019-06-27T13:17:10.497Z,0.00
2019-06-27T13:18:10.496Z,0.00
2019-06-27T13:19:10.465Z,0.00
2019-06-27T13:20:10.465Z,0.00
2019-06-27T13:21:10.458Z,0.00
2019-06-27T13:22:10.444Z,0.00
2019-06-27T13:23:10.430Z,0.00
2019-06-27T13:24:10.424Z,0.00
2019-06-27T13:25:10.414Z,0.00
2019-06-27T13:26:10.421Z,0.00
2019-06-27T13:27:10.406Z,0.00
2019-06-27T13:28:10.389Z,0.00
2019-06-27T13:29:10.375Z,0.00
2019-06-27T13:30:10.372Z,0.00
2019-06-27T13:31:10.358Z,0.00
2019-06-27T13:32:10.351Z,0.00
2019-06-27T13:33:10.387Z,0.00
2019-06-27T13:34:10.330Z,0.00
2019-06-27T13:35:10.380Z,0.00
2019-06-27T13:36:10.310Z,0.00
2019-06-27T13:37:10.303Z,0.00
2019-06-27T13:38:10.292Z,0.00
2019-06-27T13:39:10.282Z,0.00
2019-06-27T13:40:10.265Z,0.00
2019-06-27T13:41:10.275Z,0.00
2019-06-27T13:42:10.258Z,0.00
2019-06-27T13:43:10.254Z,0.00
2019-06-27T13:44:10.236Z,0.00
2019-06-27T13:45:10.232Z,0.00
2019-06-27T13:46:10.219Z,0.00
2019-06-27T13:47:10.216Z,0.00
2019-06-27T13:48:10.199Z,0.00
2019-06-27T13:49:10.199Z,0.00
2019-06-27T13:50:10.176Z,0.00
2019-06-27T13:51:10.177Z,0.00
2019-06-27T13:52:11.062Z,0.00
2019-06-27T13:53:10.158Z,0.00
2019-06-27T13:54:10.958Z,0.00
2019-06-27T13:55:10.176Z,0.00
2019-06-27T13:56:10.163Z,0.00
2019-06-27T13:57:10.128Z,0.00
2019-06-27T13:58:10.149Z,0.00
2019-06-27T13:59:10.109Z,0.00
2019-06-27T14:00:10.103Z,0.00
2019-06-27T14:01:11.083Z,0.00
2019-06-27T14:02:10.078Z,0.00
2019-06-27T14:03:10.092Z,0.00
2019-06-27T14:04:10.052Z,0.00
2019-06-27T14:05:10.042Z,0.00
2019-06-27T14:06:10.035Z,0.00
2019-06-27T14:07:10.025Z,0.00
2019-06-27T14:08:10.011Z,0.00
2019-06-27T14:09:22.355Z,0.00
2019-06-27T14:10:09.998Z,0.00
2019-06-27T14:11:09.985Z,0.00
2019-06-27T14:12:09.982Z,0.00
2019-06-27T14:13:09.975Z,0.00
2019-06-27T14:14:11.526Z,0.00
2019-06-27T14:15:09.955Z,0.00
2019-06-27T14:16:09.945Z,0.00
2019-06-27T14:17:09.938Z,0.00
2019-06-27T14:18:09.920Z,0.00
2019-06-27T14:19:09.914Z,0.00
2019-06-27T14:20:09.909Z,0.00
2019-06-27T14:21:09.957Z,0.00
2019-06-27T14:22:14.807Z,0.00
2019-06-27T14:23:09.878Z,0.00
2019-06-27T14:24:09.871Z,0.00
2019-06-27T14:25:09.857Z,0.00
2019-06-27T14:26:09.853Z,0.00
2019-06-27T14:27:09.838Z,0.00
2019-06-27T14:28:09.838Z,0.00